createdAt,value
2023-02-28T00:00:48.077Z,0.70
2023-02-28T00:03:14.916Z,0.80
2023-02-28T00:05:42.442Z,0.60
2023-02-28T00:08:09.387Z,0.80
2023-02-28T00:10:36.966Z,0.90
2023-02-28T00:13:06.418Z,0.80
2023-02-28T00:15:33.919Z,0.65
2023-02-28T00:18:00.698Z,0.80
2023-02-28T00:20:27.792Z,0.50
2023-02-28T04:49:37.183Z,0.80
2023-02-28T04:52:03.772Z,0.90
2023-02-28T04:54:30.866Z,1.00
2023-02-28T04:56:58.450Z,0.60
2023-02-28T04:59:25.070Z,0.68
2023-02-28T05:01:51.719Z,0.90
2023-02-28T05:04:19.164Z,1.10
2023-02-28T05:06:45.756Z,0.80
2023-02-28T05:09:15.465Z,0.60
2023-02-28T05:11:42.058Z,0.70
2023-02-28T05:14:12.882Z,0.90
2023-02-28T05:16:39.760Z,1.10
2023-02-28T05:19:06.409Z,0.87
2023-02-28T05:21:33.832Z,0.98
2023-02-28T05:24:12.004Z,1.00
2023-02-28T05:26:41.272Z,0.75
2023-02-28T05:29:07.951Z,1.02
2023-02-28T05:31:35.172Z,0.80
2023-02-28T05:34:02.153Z,0.80
2023-02-28T05:36:28.722Z,0.82
2023-02-28T05:38:55.300Z,0.65
2023-02-28T05:41:22.093Z,0.80
2023-02-28T05:43:49.261Z,0.87
2023-02-28T05:46:16.121Z,0.95
2023-02-28T05:48:43.859Z,0.80
2023-02-28T05:51:10.686Z,1.00
2023-02-28T05:53:37.321Z,1.02
2023-02-28T05:56:04.545Z,0.90
2023-02-28T05:58:32.117Z,0.90
2023-02-28T06:00:59.813Z,0.70
2023-02-28T06:03:26.645Z,1.10
2023-02-28T06:05:53.284Z,0.75
2023-02-28T06:08:20.117Z,1.00
2023-02-28T06:10:46.724Z,1.23
2023-02-28T06:13:13.922Z,0.75
2023-02-28T06:15:40.810Z,0.90
2023-02-28T06:18:07.400Z,1.02
2023-02-28T06:20:34.424Z,0.77
2023-02-28T06:23:01.034Z,0.90
2023-02-28T06:25:28.867Z,0.90
2023-02-28T06:27:56.278Z,1.25
2023-02-28T06:30:27.952Z,1.17
2023-02-28T06:32:55.489Z,1.00
2023-02-28T06:35:22.427Z,1.10
2023-02-28T06:37:49.198Z,0.82
2023-02-28T06:40:16.026Z,0.80
2023-02-28T06:42:43.076Z,1.10
2023-02-28T06:45:11.539Z,0.90
2023-02-28T06:47:39.503Z,1.17
2023-02-28T06:50:07.614Z,0.90
2023-02-28T06:52:37.197Z,1.00
2023-02-28T06:55:06.253Z,0.80
2023-02-28T06:57:33.916Z,0.90
2023-02-28T07:00:01.544Z,1.00
2023-02-28T07:02:28.691Z,0.65
2023-02-28T07:04:55.396Z,1.20
2023-02-28T07:07:22.203Z,0.90
2023-02-28T07:09:48.796Z,0.77
2023-02-28T07:12:15.439Z,0.95
2023-02-28T07:14:42.070Z,1.10
2023-02-28T07:17:13.190Z,1.20
2023-02-28T07:19:40.659Z,1.10
2023-02-28T07:22:08.058Z,0.80
2023-02-28T07:24:34.838Z,0.80
2023-02-28T07:27:02.483Z,0.90
2023-02-28T07:29:29.519Z,0.90
2023-02-28T07:31:56.128Z,0.90
2023-02-28T07:34:23.515Z,1.00
2023-02-28T07:36:54.402Z,1.00
2023-02-28T07:39:21.954Z,0.90
2023-02-28T07:41:48.863Z,0.93
2023-02-28T07:44:15.697Z,0.70
2023-02-28T07:46:42.296Z,1.17
2023-02-28T07:49:08.939Z,0.98
2023-02-28T07:51:35.547Z,0.90
2023-02-28T07:54:02.337Z,1.00
2023-02-28T07:56:29.292Z,1.00
2023-02-28T07:58:56.251Z,1.00
2023-02-28T08:01:22.963Z,0.90
2023-02-28T08:03:49.614Z,0.98
2023-02-28T08:06:19.277Z,1.23
2023-02-28T08:08:45.951Z,0.80
2023-02-28T08:11:12.530Z,0.97
2023-02-28T08:13:39.172Z,0.90
2023-02-28T08:16:06.015Z,0.90
2023-02-28T08:18:33.341Z,1.00
2023-02-28T08:21:00.261Z,0.80
2023-02-28T08:23:26.853Z,0.90
2023-02-28T08:25:57.204Z,0.90
2023-02-28T08:28:26.825Z,1.08
2023-02-28T08:30:53.890Z,0.93
2023-02-28T08:33:20.473Z,0.90
2023-02-28T08:35:47.102Z,1.00
2023-02-28T08:38:13.705Z,0.90
2023-02-28T08:40:40.315Z,1.10
2023-02-28T08:43:07.058Z,0.93
2023-02-28T08:45:33.699Z,1.00
2023-02-28T08:48:00.300Z,1.10
2023-02-28T08:50:26.984Z,0.95
2023-02-28T08:52:53.559Z,1.20
2023-02-28T08:55:20.188Z,1.15
2023-02-28T08:57:46.757Z,1.00
2023-02-28T09:00:14.830Z,1.00
2023-02-28T09:02:41.928Z,1.08
2023-02-28T09:05:09.391Z,0.82
2023-02-28T09:07:36.032Z,1.10
2023-02-28T09:10:02.630Z,1.20
2023-02-28T09:12:34.238Z,1.00
2023-02-28T09:15:00.847Z,1.00
2023-02-28T09:17:30.633Z,1.10
2023-02-28T09:19:58.071Z,1.05
2023-02-28T09:22:24.897Z,1.10
2023-02-28T09:24:51.537Z,0.80
2023-02-28T09:27:18.170Z,1.17
2023-02-28T09:29:44.783Z,1.10
2023-02-28T09:32:11.462Z,1.20
2023-02-28T09:34:38.504Z,1.38
2023-02-28T09:37:05.210Z,1.10
2023-02-28T09:39:32.659Z,1.10
2023-02-28T09:41:59.525Z,1.35
2023-02-28T09:44:30.648Z,1.13
2023-02-28T09:47:02.010Z,1.10
2023-02-28T09:49:35.518Z,1.10
2023-02-28T09:52:10.159Z,1.25
2023-02-28T09:54:37.481Z,1.00
2023-02-28T09:57:10.929Z,0.80
2023-02-28T10:00:11.408Z,1.08
2023-02-28T10:02:40.851Z,0.90
2023-02-28T10:05:14.272Z,1.00
2023-02-28T10:08:00.188Z,1.10
2023-02-28T10:10:32.611Z,0.88
2023-02-28T10:13:01.362Z,1.00
2023-02-28T10:15:31.336Z,1.20
2023-02-28T10:18:08.848Z,0.75
2023-02-28T10:20:39.441Z,1.00
2023-02-28T10:23:08.695Z,0.80
2023-02-28T10:25:37.162Z,1.20
2023-02-28T10:28:11.650Z,1.27
2023-02-28T10:30:40.553Z,0.80
2023-02-28T10:33:07.244Z,0.80
2023-02-28T10:35:34.965Z,1.00
2023-02-28T10:38:04.121Z,1.48
2023-02-28T10:40:36.573Z,0.90
2023-02-28T10:43:05.593Z,1.50
2023-02-28T10:45:35.790Z,1.00
2023-02-28T10:48:16.303Z,1.35
2023-02-28T10:50:50.657Z,0.90
2023-02-28T10:53:24.245Z,1.20
2023-02-28T10:56:18.676Z,1.00
2023-02-28T10:58:51.102Z,1.00
2023-02-28T11:01:23.774Z,1.98
2023-02-28T11:03:51.494Z,1.77
2023-02-28T11:06:22.121Z,1.13
2023-02-28T11:08:54.646Z,1.50
2023-02-28T11:11:22.740Z,1.60
2023-02-28T11:13:52.972Z,1.33
2023-02-28T11:16:19.890Z,1.70
2023-02-28T11:18:51.695Z,1.23
2023-02-28T11:21:41.435Z,1.60
2023-02-28T11:24:43.435Z,1.83
2023-02-28T11:27:31.604Z,1.10
2023-02-28T11:29:59.661Z,2.17
2023-02-28T11:32:29.878Z,0.93
2023-02-28T11:35:10.394Z,1.52
2023-02-28T11:37:37.688Z,1.30
2023-02-28T11:40:20.055Z,1.38
2023-02-28T11:43:04.678Z,1.30
2023-02-28T11:45:45.186Z,1.30
2023-02-28T11:48:15.616Z,1.10
2023-02-28T11:51:08.870Z,1.35
2023-02-28T11:53:45.510Z,1.60
2023-02-28T11:56:33.922Z,1.45
2023-02-28T11:59:28.605Z,1.73
2023-02-28T12:02:17.317Z,1.40
2023-02-28T12:05:19.140Z,1.50
2023-02-28T12:08:11.310Z,1.60
2023-02-28T12:10:59.040Z,1.33
2023-02-28T12:13:34.013Z,1.40
2023-02-28T12:16:31.518Z,1.30
2023-02-28T12:19:13.293Z,1.30
2023-02-28T12:22:24.764Z,1.23
2023-02-28T12:25:10.564Z,1.67
2023-02-28T12:27:43.927Z,1.30
2023-02-28T12:30:26.802Z,1.40
2023-02-28T12:33:04.464Z,1.23
2023-02-28T12:35:56.532Z,1.35
2023-02-28T12:38:35.925Z,1.33
2023-02-28T12:41:08.060Z,1.23
2023-02-28T12:43:41.302Z,1.70
2023-02-28T12:46:38.398Z,1.58
2023-02-28T12:49:20.599Z,1.55
2023-02-28T12:51:47.614Z,1.60
2023-02-28T12:54:37.239Z,1.20
2023-02-28T12:57:40.832Z,1.40
2023-02-28T13:00:16.469Z,1.20
2023-02-28T13:03:06.315Z,1.23
2023-02-28T13:05:38.977Z,1.15
2023-02-28T13:08:08.326Z,1.07
2023-02-28T13:10:55.660Z,1.02
2023-02-28T13:13:30.529Z,1.27
2023-02-28T13:16:15.384Z,0.90
2023-02-28T13:18:46.734Z,1.50
2023-02-28T13:21:34.274Z,1.60
2023-02-28T13:24:03.586Z,1.00
2023-02-28T13:26:52.902Z,1.00
2023-02-28T13:29:34.461Z,1.00
2023-02-28T13:32:07.016Z,1.02
2023-02-28T13:34:35.074Z,1.30
2023-02-28T13:37:24.009Z,1.15
2023-02-28T13:39:50.572Z,1.00
2023-02-28T13:42:56.644Z,1.50
2023-02-28T13:45:31.081Z,1.02
2023-02-28T13:48:04.240Z,1.17
2023-02-28T13:50:34.803Z,1.25
2023-02-28T13:53:40.141Z,1.27
2023-02-28T13:56:43.199Z,1.45
2023-02-28T13:59:24.949Z,1.20
2023-02-28T14:02:00.949Z,1.00
2023-02-28T14:05:05.263Z,1.38
2023-02-28T14:07:38.890Z,1.10
2023-02-28T14:10:09.575Z,1.08
2023-02-28T14:12:58.909Z,1.30
2023-02-28T14:15:36.435Z,1.40
2023-02-28T14:18:06.714Z,1.10
2023-02-28T14:20:34.560Z,1.00
2023-02-28T14:23:36.425Z,1.10
2023-02-28T14:26:39.876Z,1.10
2023-02-28T14:29:39.398Z,1.00
2023-02-28T14:32:28.113Z,1.23
2023-02-28T14:35:15.012Z,1.20
2023-02-28T14:37:42.695Z,1.27
2023-02-28T14:40:29.092Z,1.23
2023-02-28T14:43:01.426Z,1.10
2023-02-28T14:45:31.565Z,1.50
2023-02-28T14:47:59.662Z,1.33
2023-02-28T14:50:35.715Z,1.48
2023-02-28T14:53:03.362Z,1.10
2023-02-28T14:55:32.465Z,1.33
2023-02-28T14:58:01.454Z,1.00
2023-02-28T15:00:31.115Z,0.93
2023-02-28T15:02:59.365Z,1.30
2023-02-28T15:05:31.365Z,1.00
2023-02-28T15:08:06.812Z,0.90
2023-02-28T15:10:34.457Z,1.10
2023-02-28T15:13:03.447Z,1.20
2023-02-28T15:16:03.957Z,0.98
2023-02-28T15:18:54.269Z,1.30
2023-02-28T15:21:27.526Z,1.20
2023-02-28T15:23:54.050Z,1.40
2023-02-28T15:26:23.176Z,1.42
2023-02-28T15:28:52.588Z,1.15
2023-02-28T15:31:28.476Z,1.10
2023-02-28T15:33:56.869Z,1.30
2023-02-28T15:36:28.956Z,1.10
2023-02-28T15:38:57.740Z,1.10
2023-02-28T15:41:31.887Z,1.17
2023-02-28T15:44:31.018Z,1.20
2023-02-28T15:47:06.046Z,1.00
2023-02-28T15:49:45.067Z,1.13
2023-02-28T15:52:16.890Z,0.98
2023-02-28T15:54:45.217Z,1.33
2023-02-28T15:57:16.422Z,0.95
2023-02-28T15:59:51.156Z,1.10
2023-02-28T16:02:20.842Z,1.00
2023-02-28T16:04:59.246Z,1.10
2023-02-28T16:07:25.971Z,1.00
2023-02-28T16:09:52.763Z,1.00
2023-02-28T16:12:20.347Z,1.40
2023-02-28T16:14:48.430Z,0.98
2023-02-28T16:17:22.112Z,0.90
2023-02-28T16:19:48.700Z,0.98
2023-02-28T16:22:15.264Z,1.10
2023-02-28T16:24:42.606Z,1.13
2023-02-28T16:27:21.698Z,1.20
2023-02-28T16:29:48.838Z,1.00
2023-02-28T16:32:16.366Z,1.20
2023-02-28T16:34:45.788Z,0.90
2023-02-28T16:37:17.446Z,1.10
2023-02-28T16:39:45.203Z,1.08
2023-02-28T16:42:16.786Z,0.93
2023-02-28T16:44:43.474Z,0.95
2023-02-28T16:47:11.607Z,1.00
2023-02-28T16:49:38.385Z,0.80
2023-02-28T16:52:05.581Z,1.30
2023-02-28T16:54:32.337Z,1.30
2023-02-28T16:56:58.880Z,1.17
2023-02-28T16:59:27.267Z,1.00
2023-02-28T17:01:54.951Z,1.13
2023-02-28T17:04:21.640Z,0.93
2023-02-28T17:06:48.259Z,1.00
2023-02-28T17:09:28.225Z,0.82
2023-02-28T17:11:57.778Z,1.00
2023-02-28T17:14:24.547Z,0.80
2023-02-28T17:16:51.163Z,0.80
2023-02-28T17:19:19.231Z,0.95
2023-02-28T17:21:46.504Z,1.10
2023-02-28T17:24:16.638Z,1.10
2023-02-28T17:26:46.164Z,0.80
2023-02-28T17:29:19.599Z,0.70
2023-02-28T17:31:46.353Z,0.95
2023-02-28T17:34:22.512Z,1.25
2023-02-28T17:36:50.857Z,1.20
2023-02-28T17:39:25.382Z,1.07
2023-02-28T17:41:52.901Z,1.08
2023-02-28T17:44:20.120Z,0.90
2023-02-28T17:46:47.497Z,1.05
2023-02-28T17:49:14.349Z,1.20
2023-02-28T17:51:40.944Z,0.90
2023-02-28T17:54:07.525Z,1.38
2023-02-28T17:56:34.131Z,1.13
2023-02-28T17:59:00.804Z,0.95
2023-02-28T18:01:27.892Z,1.02
2023-02-28T18:03:55.362Z,1.10
2023-02-28T18:06:47.251Z,1.00
2023-02-28T18:09:23.886Z,0.98
2023-02-28T18:11:51.563Z,1.10
2023-02-28T18:14:19.554Z,0.90
2023-02-28T18:16:46.635Z,1.00
2023-02-28T18:19:17.382Z,1.10
2023-02-28T18:21:45.457Z,0.90
2023-02-28T18:24:13.593Z,1.20
2023-02-28T18:26:41.139Z,1.10
2023-02-28T18:29:08.295Z,1.23
2023-02-28T18:31:35.724Z,1.10
2023-02-28T18:34:02.338Z,1.48
2023-02-28T18:36:29.329Z,1.13
2023-02-28T18:38:56.302Z,1.55
2023-02-28T18:41:23.062Z,1.50
2023-02-28T18:43:52.108Z,1.80
2023-02-28T18:46:19.966Z,1.52
2023-02-28T18:48:47.334Z,1.80
2023-02-28T18:51:19.275Z,1.80
2023-02-28T18:53:46.514Z,1.60
2023-02-28T18:56:16.015Z,1.60
2023-02-28T18:58:43.220Z,1.40
2023-02-28T19:01:17.374Z,1.50
2023-02-28T19:03:44.594Z,1.33
2023-02-28T19:06:11.457Z,1.50
2023-02-28T19:08:38.099Z,1.70
2023-02-28T19:11:26.668Z,1.40
2023-02-28T19:13:53.326Z,1.30
2023-02-28T19:16:21.614Z,1.40
2023-02-28T19:18:48.211Z,1.40
2023-02-28T19:21:17.309Z,1.70
2023-02-28T19:23:44.515Z,1.40
2023-02-28T19:26:16.231Z,1.40
2023-02-28T19:28:43.006Z,1.35
2023-02-28T19:31:32.116Z,1.50
2023-02-28T19:33:59.184Z,1.75
2023-02-28T19:36:26.022Z,1.70
2023-02-28T19:38:52.594Z,1.60
2023-02-28T19:41:19.830Z,1.40
2023-02-28T19:43:46.923Z,1.47
2023-02-28T19:46:14.344Z,1.50
2023-02-28T19:48:42.429Z,1.65
2023-02-28T19:51:10.818Z,1.30
2023-02-28T19:53:39.196Z,1.42
2023-02-28T19:56:06.313Z,1.30
2023-02-28T19:58:33.582Z,1.20
2023-02-28T20:01:10.538Z,1.30
2023-02-28T20:03:37.216Z,1.30
2023-02-28T20:06:09.939Z,1.80
2023-02-28T20:08:37.496Z,1.77
2023-02-28T20:11:05.836Z,1.35
2023-02-28T20:13:32.509Z,1.48
2023-02-28T20:16:01.036Z,1.20
2023-02-28T20:18:27.677Z,1.50
2023-02-28T20:20:54.301Z,1.53
2023-02-28T20:23:20.905Z,1.80
2023-02-28T20:25:47.696Z,1.38
2023-02-28T20:28:14.260Z,1.55
2023-02-28T20:30:41.976Z,1.80
2023-02-28T20:33:08.627Z,1.80
2023-02-28T20:35:35.350Z,1.65
2023-02-28T20:38:01.978Z,1.80
2023-02-28T20:40:28.582Z,1.73
2023-02-28T20:42:55.360Z,1.50
2023-02-28T20:45:22.079Z,1.50
2023-02-28T20:47:48.648Z,1.90
2023-02-28T20:50:17.136Z,1.52
2023-02-28T20:52:46.745Z,1.60
2023-02-28T20:55:13.853Z,1.83
2023-02-28T20:57:40.493Z,1.80
2023-02-28T21:00:19.359Z,1.80
2023-02-28T21:02:46.190Z,1.88
2023-02-28T21:05:12.874Z,1.50
2023-02-28T21:07:39.480Z,1.88
2023-02-28T21:10:07.504Z,2.10
2023-02-28T21:12:35.778Z,2.03
2023-02-28T21:15:02.400Z,1.70
2023-02-28T21:17:29.570Z,1.80
2023-02-28T21:19:56.156Z,1.90
2023-02-28T21:22:22.733Z,1.73
2023-02-28T21:24:49.316Z,2.00
2023-02-28T21:27:16.425Z,1.80
2023-02-28T21:29:43.015Z,1.90
2023-02-28T21:32:09.991Z,1.73
2023-02-28T21:34:36.648Z,1.80
2023-02-28T21:37:03.847Z,1.60
2023-02-28T21:39:30.710Z,1.80
2023-02-28T21:42:03.881Z,1.42
2023-02-28T21:44:34.253Z,2.00
2023-02-28T21:47:01.863Z,1.60
2023-02-28T21:49:29.081Z,1.67
2023-02-28T21:51:55.737Z,1.88
2023-02-28T21:54:22.719Z,1.60
2023-02-28T21:56:50.718Z,1.90
2023-02-28T21:59:17.877Z,2.10
2023-02-28T22:01:45.364Z,1.98
2023-02-28T22:04:22.624Z,1.60
2023-02-28T22:06:54.182Z,1.90
2023-02-28T22:09:21.093Z,1.67
2023-02-28T22:11:47.792Z,1.93
2023-02-28T22:14:14.700Z,1.60
2023-02-28T22:16:51.368Z,1.63
2023-02-28T22:19:20.524Z,1.50
2023-02-28T22:21:47.666Z,1.65
2023-02-28T22:24:15.756Z,1.50
2023-02-28T22:26:42.332Z,1.70
2023-02-28T22:29:09.011Z,1.58
2023-02-28T22:31:35.942Z,1.30
2023-02-28T22:34:08.016Z,2.00
2023-02-28T22:36:34.982Z,1.97
2023-02-28T22:39:01.869Z,1.48
2023-02-28T22:41:28.993Z,1.10
2023-02-28T22:43:58.575Z,1.23
2023-02-28T22:46:26.969Z,1.67
2023-02-28T22:48:53.884Z,1.30
2023-02-28T22:51:23.264Z,1.30
2023-02-28T22:53:50.332Z,1.67
2023-02-28T22:56:19.314Z,1.73
2023-02-28T22:58:51.033Z,1.60
2023-02-28T23:01:19.386Z,1.73
2023-02-28T23:03:46.039Z,1.90
2023-02-28T23:06:26.126Z,1.50
2023-02-28T23:08:55.425Z,1.80
2023-02-28T23:11:30.697Z,2.03
2023-02-28T23:14:00.831Z,1.57
2023-02-28T23:16:38.671Z,2.03
2023-02-28T23:19:08.188Z,1.80
2023-02-28T23:21:34.906Z,1.90
2023-02-28T23:24:05.357Z,1.83
2023-02-28T23:26:33.006Z,2.00
2023-02-28T23:28:59.830Z,2.05
2023-02-28T23:31:26.443Z,1.60
2023-02-28T23:33:53.069Z,1.38
2023-02-28T23:36:19.860Z,1.88
2023-02-28T23:38:48.520Z,1.93
2023-02-28T23:41:15.544Z,1.85
2023-02-28T23:43:42.136Z,1.80
2023-02-28T23:46:09.502Z,1.90
2023-02-28T23:48:36.365Z,1.80
2023-02-28T23:51:09.210Z,1.53
2023-02-28T23:53:40.729Z,1.80
2023-02-28T23:56:08.945Z,1.58
2023-02-28T23:58:36.080Z,1.50
